Time,TemperatureF,DewpointF,PressureIn,WindDirection,WindDirectionDegrees,WindSpeedMPH,WindSpeedGustMPH,Humidity,HourlyPrecipIn,Conditions,Clouds,dailyrainin,SoftwareType,DateUTC
2013-06-26 00:02:00,78.0,65.0,29.77,WSW,246,3.0,9.0,65,0.00,,,0.00,,2013-06-26 04:02:00,
2013-06-26 00:22:00,79.0,67.0,29.76,SW,222,4.0,9.0,66,0.00,,,0.00,,2013-06-26 04:22:00,
2013-06-26 00:33:00,79.0,67.0,29.76,WSW,253,3.0,10.0,67,0.00,,,0.00,,2013-06-26 04:33:00,
2013-06-26 00:43:00,79.0,68.0,29.75,West,276,4.0,10.0,68,0.00,,,0.00,,2013-06-26 04:43:00,
2013-06-26 00:53:00,80.0,68.0,29.74,WSW,254,5.0,14.0,68,0.00,,,0.00,,2013-06-26 04:53:00,
2013-06-26 01:02:00,80.0,68.0,29.73,WSW,252,5.0,14.0,68,0.00,,,0.00,,2013-06-26 05:02:00,
2013-06-26 01:11:00,80.0,69.0,29.73,SW,224,4.0,13.0,69,0.00,,,0.00,,2013-06-26 05:11:00,
2013-06-26 01:22:00,79.0,69.0,29.73,WSW,254,3.0,11.0,71,0.00,,,0.00,,2013-06-26 05:22:00,
2013-06-26 01:34:00,79.0,69.0,29.73,West,264,5.0,12.0,72,0.00,,,0.00,,2013-06-26 05:34:00,
2013-06-26 01:43:00,79.0,69.0,29.73,WSW,245,7.0,13.0,72,0.00,,,0.00,,2013-06-26 05:43:00,
2013-06-26 01:52:00,79.0,69.0,29.73,WSW,245,7.0,13.0,72,0.00,,,0.00,,2013-06-26 05:52:00,
2013-06-26 02:02:00,78.0,69.0,29.72,WSW,252,6.0,17.0,73,0.00,,,0.00,,2013-06-26 06:02:00,
2013-06-26 02:34:00,77.0,68.0,29.71,West,273,0.0,5.0,73,0.00,,,0.00,,2013-06-26 06:34:00,
2013-06-26 02:44:00,77.0,68.0,29.71,WSW,257,3.0,9.0,74,0.00,,,0.00,,2013-06-26 06:44:00,
2013-06-26 02:53:00,77.0,67.0,29.73,WNW,290,6.0,11.0,72,0.00,,,0.00,,2013-06-26 06:53:00,
2013-06-26 03:01:00,77.0,67.0,29.73,WNW,283,4.0,11.0,72,0.00,,,0.00,,2013-06-26 07:01:00,
2013-06-26 03:11:00,77.0,67.0,29.73,WNW,285,6.0,13.0,71,0.00,,,0.00,,2013-06-26 07:11:00,
2013-06-26 03:22:00,77.0,66.0,29.73,West,273,3.0,8.0,70,0.00,,,0.00,,2013-06-26 07:22:00,
2013-06-26 03:33:00,76.0,65.0,29.73,WNW,284,5.0,12.0,69,0.00,,,0.00,,2013-06-26 07:33:00,
2013-06-26 03:43:00,76.0,65.0,29.73,WNW,283,3.0,12.0,70,0.00,,,0.00,,2013-06-26 07:43:00,
2013-06-26 03:53:00,75.0,65.0,29.73,West,271,4.0,12.0,71,0.00,,,0.00,,2013-06-26 07:53:00,
2013-06-26 04:01:00,75.0,65.0,29.73,West,269,6.0,14.0,71,0.00,,,0.00,,2013-06-26 08:01:00,
2013-06-26 04:42:00,74.0,64.0,29.75,WNW,288,5.0,14.0,72,0.00,,,0.00,,2013-06-26 08:42:00,
2013-06-26 04:52:00,74.0,64.0,29.75,WNW,288,5.0,14.0,72,0.00,,,0.00,,2013-06-26 08:52:00,
2013-06-26 05:43:00,73.0,63.0,29.75,WNW,296,8.0,14.0,72,0.00,,,0.00,,2013-06-26 09:43:00,
2013-06-26 06:01:00,73.0,63.0,29.76,West,277,6.0,14.0,71,0.00,,,0.00,,2013-06-26 10:01:00,
2013-06-26 06:12:00,73.0,63.0,29.76,West,277,6.0,14.0,71,0.00,,,0.00,,2013-06-26 10:12:00,
2013-06-26 06:22:00,73.0,63.0,29.76,WNW,294,4.0,13.0,71,0.00,,,0.00,,2013-06-26 10:22:00,
2013-06-26 07:02:00,73.0,63.0,29.78,West,280,4.0,9.0,71,0.00,,,0.00,,2013-06-26 11:02:00,
2013-06-26 07:12:00,73.0,63.0,29.78,West,280,4.0,9.0,71,0.00,,,0.00,,2013-06-26 11:12:00,
2013-06-26 07:23:00,74.0,64.0,29.78,West,271,4.0,9.0,70,0.00,,,0.00,,2013-06-26 11:23:00,
2013-06-26 07:52:00,75.0,64.0,29.78,WNW,288,4.0,10.0,69,0.00,,,0.00,,2013-06-26 11:52:00,
2013-06-26 08:02:00,75.0,64.0,29.78,West,278,7.0,15.0,68,0.00,,,0.00,,2013-06-26 12:02:00,
2013-06-26 08:12:00,75.0,64.0,29.78,West,278,7.0,15.0,68,0.00,,,0.00,,2013-06-26 12:12:00,
2013-06-26 08:33:00,77.0,65.0,29.78,WNW,282,4.0,13.0,66,0.00,,,0.00,,2013-06-26 12:33:00,
2013-06-26 08:43:00,77.0,64.0,29.78,WNW,284,3.0,10.0,64,0.00,,,0.00,,2013-06-26 12:43:00,
2013-06-26 08:52:00,78.0,64.0,29.78,WNW,292,5.0,10.0,63,0.00,,,0.00,,2013-06-26 12:52:00,
2013-06-26 09:02:00,79.0,65.0,29.79,WNW,286,6.0,11.0,62,0.00,,,0.00,,2013-06-26 13:02:00,
2013-06-26 09:11:00,79.0,65.0,29.79,WNW,286,6.0,11.0,62,0.00,,,0.00,,2013-06-26 13:11:00,
2013-06-26 09:23:00,78.0,64.0,29.79,WNW,286,7.0,13.0,62,0.00,,,0.00,,2013-06-26 13:23:00,
2013-06-26 09:34:00,79.0,65.0,29.79,WSW,252,2.0,10.0,62,0.00,,,0.00,,2013-06-26 13:34:00,
2013-06-26 09:43:00,80.0,65.0,29.78,WNW,291,5.0,10.0,60,0.00,,,0.00,,2013-06-26 13:43:00,
2013-06-26 09:53:00,80.0,65.0,29.78,WNW,291,5.0,10.0,60,0.00,,,0.00,,2013-06-26 13:53:00,
2013-06-26 10:02:00,80.0,65.0,29.79,WNW,293,4.0,9.0,60,0.00,,,0.00,,2013-06-26 14:02:00,
2013-06-26 10:12:00,80.0,65.0,29.79,WNW,293,4.0,9.0,60,0.00,,,0.00,,2013-06-26 14:12:00,
2013-06-26 10:24:00,80.0,65.0,29.79,WNW,285,3.0,10.0,61,0.00,,,0.00,,2013-06-26 14:24:00,
2013-06-26 10:53:00,80.0,65.0,29.78,WNW,293,4.0,10.0,60,0.00,,,0.00,,2013-06-26 14:53:00,
2013-06-26 11:02:00,80.0,64.0,29.78,SSW,209,0.0,12.0,59,0.00,,,0.00,,2013-06-26 15:02:00,
2013-06-26 11:34:00,82.0,65.0,29.79,WNW,292,2.0,6.0,56,0.00,,,0.00,,2013-06-26 15:34:00,
2013-06-26 11:44:00,83.0,65.0,29.79,West,275,4.0,10.0,55,0.00,,,0.00,,2013-06-26 15:44:00,
2013-06-26 11:53:00,83.0,65.0,29.79,West,275,4.0,10.0,55,0.00,,,0.00,,2013-06-26 15:53:00,
2013-06-26 12:02:00,84.0,65.0,29.78,WNW,283,5.0,13.0,53,0.00,,,0.00,,2013-06-26 16:02:00,
2013-06-26 12:11:00,83.0,64.0,29.78,West,263,3.0,12.0,53,0.00,,,0.00,,2013-06-26 16:11:00,
2013-06-26 12:22:00,84.0,65.0,29.78,WNW,292,6.0,14.0,53,0.00,,,0.00,,2013-06-26 16:22:00,
2013-06-26 12:34:00,84.0,64.0,29.78,West,269,4.0,10.0,52,0.00,,,0.00,,2013-06-26 16:34:00,
2013-06-26 12:43:00,85.0,65.0,29.78,SW,224,4.0,12.0,52,0.00,,,0.00,,2013-06-26 16:43:00,
2013-06-26 13:02:00,87.0,65.0,29.78,West,281,7.0,15.0,48,0.00,,,0.00,,2013-06-26 17:02:00,
2013-06-26 13:24:00,87.0,64.0,29.78,West,268,3.0,11.0,47,0.00,,,0.00,,2013-06-26 17:24:00,
2013-06-26 13:33:00,88.0,64.0,29.78,West,281,5.0,12.0,45,0.00,,,0.00,,2013-06-26 17:33:00,
2013-06-26 13:43:00,88.0,66.0,29.78,West,276,4.0,10.0,48,0.00,,,0.00,,2013-06-26 17:43:00,
2013-06-26 13:52:00,88.0,66.0,29.78,West,276,4.0,10.0,48,0.00,,,0.00,,2013-06-26 17:52:00,
2013-06-26 14:01:00,88.0,63.0,29.77,SW,217,6.0,10.0,43,0.00,,,0.00,,2013-06-26 18:01:00,
2013-06-26 14:34:00,89.0,63.0,29.77,West,273,3.0,11.0,42,0.00,,,0.00,,2013-06-26 18:34:00,
2013-06-26 14:43:00,90.0,64.0,29.77,SSW,199,6.0,11.0,42,0.00,,,0.00,,2013-06-26 18:43:00,
2013-06-26 14:52:00,90.0,64.0,29.76,West,260,6.0,11.0,42,0.00,,,0.00,,2013-06-26 18:52:00,
2013-06-26 15:02:00,90.0,64.0,29.76,WSW,242,3.0,9.0,42,0.00,,,0.00,,2013-06-26 19:02:00,
2013-06-26 15:11:00,90.0,64.0,29.76,WSW,242,3.0,9.0,42,0.00,,,0.00,,2013-06-26 19:11:00,
2013-06-26 15:22:00,89.0,64.0,29.76,West,271,5.0,11.0,43,0.00,,,0.00,,2013-06-26 19:22:00,
2013-06-26 15:33:00,89.0,64.0,29.76,NNW,328,3.0,9.0,44,0.00,,,0.00,,2013-06-26 19:33:00,
2013-06-26 15:43:00,90.0,62.0,29.75,WNW,292,5.0,10.0,40,0.00,,,0.00,,2013-06-26 19:43:00,
2013-06-26 15:52:00,90.0,62.0,29.75,WNW,292,5.0,10.0,40,0.00,,,0.00,,2013-06-26 19:52:00,
2013-06-26 16:12:00,91.0,63.0,29.75,West,276,2.0,8.0,39,0.00,,,0.00,,2013-06-26 20:12:00,
2013-06-26 16:34:00,91.0,63.0,29.73,WSW,257,0.0,7.0,39,0.00,,,0.00,,2013-06-26 20:34:00,
2013-06-26 16:43:00,89.0,67.0,29.73,SE,124,1.0,5.0,48,0.00,,,0.00,,2013-06-26 20:43:00,
2013-06-26 16:52:00,85.0,66.0,29.73,SE,146,5.0,11.0,53,0.00,,,0.00,,2013-06-26 20:52:00,
2013-06-26 17:02:00,85.0,66.0,29.73,SE,146,5.0,11.0,53,0.00,,,0.00,,2013-06-26 21:02:00,
2013-06-26 17:33:00,84.0,67.0,29.72,SSE,148,4.0,10.0,57,0.00,,,0.00,,2013-06-26 21:33:00,
2013-06-26 17:43:00,83.0,67.0,29.72,SE,129,2.0,9.0,58,0.00,,,0.00,,2013-06-26 21:43:00,
2013-06-26 17:52:00,83.0,67.0,29.72,SE,129,2.0,9.0,58,0.00,,,0.00,,2013-06-26 21:52:00,
2013-06-26 18:01:00,83.0,68.0,29.71,SE,130,2.0,7.0,60,0.00,,,0.00,,2013-06-26 22:01:00,
2013-06-26 18:11:00,83.0,68.0,29.71,SE,130,2.0,7.0,60,0.00,,,0.00,,2013-06-26 22:11:00,
2013-06-26 18:22:00,83.0,67.0,29.71,SSE,149,0.0,6.0,59,0.00,,,0.00,,2013-06-26 22:22:00,
2013-06-26 18:43:00,82.0,67.0,29.71,SSE,157,1.0,5.0,60,0.00,,,0.00,,2013-06-26 22:43:00,
2013-06-26 18:52:00,82.0,67.0,29.71,SSE,157,1.0,5.0,60,0.00,,,0.00,,2013-06-26 22:52:00,
2013-06-26 19:34:00,80.0,68.0,29.71,SSE,157,0.0,5.0,67,0.00,,,0.00,,2013-06-26 23:34:00,
2013-06-26 19:43:00,80.0,68.0,29.71,SSE,157,0.0,1.0,68,0.00,,,0.00,,2013-06-26 23:43:00,
2013-06-26 19:53:00,80.0,70.0,29.72,SSE,159,0.0,2.0,71,0.00,,,0.00,,2013-06-26 23:53:00,
2013-06-26 20:01:00,80.0,73.0,29.72,WSW,252,1.0,6.0,79,0.00,,,0.00,,2013-06-27 00:01:00,
2013-06-26 20:12:00,76.0,70.0,29.72,SW,217,3.0,18.0,83,0.00,,,0.00,,2013-06-27 00:12:00,
2013-06-26 20:33:00,72.0,69.0,29.75,ESE,107,1.0,4.0,90,0.00,,,0.00,,2013-06-27 00:33:00,
2013-06-26 20:43:00,72.0,69.0,29.75,West,280,0.0,7.0,91,0.00,,,0.00,,2013-06-27 00:43:00,
2013-06-26 20:53:00,72.0,69.0,29.75,West,280,0.0,7.0,91,0.00,,,0.00,,2013-06-27 00:53:00,
2013-06-26 21:01:00,72.0,70.0,29.73,West,267,0.0,1.0,93,0.00,,,0.00,,2013-06-27 01:01:00,
2013-06-26 21:11:00,72.0,70.0,29.73,West,267,0.0,1.0,93,0.00,,,0.00,,2013-06-27 01:11:00,
2013-06-26 21:22:00,72.0,70.0,29.73,West,267,0.0,1.0,94,0.00,,,0.00,,2013-06-27 01:22:00,
2013-06-26 21:32:00,72.0,70.0,29.73,West,267,0.0,1.0,94,0.00,,,0.00,,2013-06-27 01:32:00,
2013-06-26 21:43:00,72.0,71.0,29.74,West,266,0.0,1.0,96,0.00,,,0.00,,2013-06-27 01:43:00,
2013-06-26 21:53:00,72.0,71.0,29.74,West,266,0.0,1.0,96,0.00,,,0.00,,2013-06-27 01:53:00,
2013-06-26 22:01:00,72.0,71.0,29.74,West,266,0.0,1.0,96,0.00,,,0.00,,2013-06-27 02:01:00,
2013-06-26 22:11:00,72.0,71.0,29.74,West,266,0.0,1.0,96,0.00,,,0.00,,2013-06-27 02:11:00,
2013-06-26 22:22:00,72.0,71.0,29.74,West,265,0.0,1.0,96,0.00,,,0.00,,2013-06-27 02:22:00,
2013-06-26 22:32:00,72.0,71.0,29.74,West,265,0.0,1.0,96,0.00,,,0.00,,2013-06-27 02:32:00,
2013-06-26 22:42:00,72.0,71.0,29.74,West,265,0.0,1.0,96,0.00,,,0.00,,2013-06-27 02:42:00,
2013-06-26 22:52:00,72.0,71.0,29.75,South,186,0.0,2.0,97,0.00,,,0.00,,2013-06-27 02:52:00,
2013-06-26 23:02:00,72.0,71.0,29.75,South,186,0.0,2.0,97,0.00,,,0.00,,2013-06-27 03:02:00,
2013-06-26 23:11:00,72.0,71.0,29.76,South,186,0.0,1.0,97,0.00,,,0.00,,2013-06-27 03:11:00,
2013-06-26 23:22:00,72.0,71.0,29.76,South,186,0.0,1.0,97,0.00,,,0.00,,2013-06-27 03:22:00,
2013-06-26 23:33:00,72.0,71.0,29.76,South,186,0.0,1.0,97,0.00,,,0.00,,2013-06-27 03:33:00,
2013-06-26 23:42:00,72.0,71.0,29.76,South,186,0.0,1.0,97,0.00,,,0.00,,2013-06-27 03:42:00,
2013-06-26 23:52:00,72.0,71.0,29.76,South,191,0.0,5.0,96,0.00,,,0.00,,2013-06-27 03:52:00,